createdAt,value
2018-11-28T00:00:21.898Z,17.43
2018-11-28T00:02:50.707Z,17.40
2018-11-28T00:05:19.502Z,17.03
2018-11-28T00:07:48.182Z,18.40
2018-11-28T00:10:16.895Z,18.37
2018-11-28T00:12:45.575Z,16.93
2018-11-28T00:15:15.312Z,17.53
2018-11-28T00:17:44.054Z,18.23
2018-11-28T00:20:15.897Z,16.43
2018-11-28T00:22:44.739Z,17.63
2018-11-28T00:25:14.184Z,18.37
2018-11-28T00:27:43.137Z,17.87
2018-11-28T00:30:21.493Z,18.10
2018-11-28T00:32:50.208Z,18.10
2018-11-28T00:35:20.073Z,17.90
2018-11-28T00:37:48.886Z,17.80
2018-11-28T00:40:19.176Z,17.40
2018-11-28T00:42:47.908Z,17.77
2018-11-28T00:45:20.325Z,17.00
2018-11-28T00:47:49.048Z,17.87
2018-11-28T00:50:22.089Z,18.20
2018-11-28T00:52:50.810Z,19.10
2018-11-28T00:55:19.523Z,18.77
2018-11-28T00:57:48.218Z,18.60
2018-11-28T01:00:20.460Z,17.60
2018-11-28T01:02:49.589Z,19.30
2018-11-28T01:05:18.411Z,18.73
2018-11-28T01:07:47.876Z,18.27
2018-11-28T01:10:18.272Z,17.33
2018-11-28T01:12:47.203Z,18.00
2018-11-28T01:15:17.192Z,18.03
2018-11-28T01:17:45.886Z,18.80
2018-11-28T01:20:17.772Z,18.93
2018-11-28T01:22:46.478Z,17.83
2018-11-28T01:25:16.157Z,18.63
2018-11-28T01:27:44.957Z,17.77
2018-11-28T01:30:21.758Z,19.17
2018-11-28T01:32:50.519Z,18.33
2018-11-28T01:35:20.053Z,19.30
2018-11-28T01:37:48.798Z,18.30
2018-11-28T01:40:20.442Z,18.23
2018-11-28T01:42:49.128Z,17.73
2018-11-28T01:45:18.816Z,19.00
2018-11-28T01:47:47.625Z,19.23
2018-11-28T01:50:17.307Z,18.83
2018-11-28T01:52:46.048Z,19.63
2018-11-28T01:55:16.713Z,19.47
2018-11-28T01:57:45.446Z,19.10
2018-11-28T02:00:19.181Z,19.03
2018-11-28T02:02:49.091Z,19.73
2018-11-28T02:05:17.787Z,20.00
2018-11-28T02:07:46.485Z,18.83
2018-11-28T02:10:16.220Z,20.10
2018-11-28T02:12:44.968Z,18.87
2018-11-28T02:15:14.841Z,18.73
2018-11-28T02:17:43.562Z,18.40
2018-11-28T02:20:14.164Z,17.47
2018-11-28T02:22:42.897Z,19.60
2018-11-28T02:25:12.606Z,19.17
2018-11-28T02:27:41.391Z,18.77
2018-11-28T02:30:13.510Z,19.20
2018-11-28T02:32:42.201Z,19.43
2018-11-28T02:35:12.627Z,18.70
2018-11-28T02:37:41.416Z,19.60
2018-11-28T02:40:11.327Z,19.30
2018-11-28T02:42:40.074Z,20.33
2018-11-28T02:45:23.482Z,19.90
2018-11-28T02:47:52.734Z,18.67
2018-11-28T02:50:21.441Z,20.10
2018-11-28T02:52:50.121Z,18.57
2018-11-28T02:55:19.035Z,19.47
2018-11-28T02:57:48.795Z,20.97
2018-11-28T03:00:20.597Z,19.83
2018-11-28T03:02:49.347Z,19.07
2018-11-28T03:05:18.078Z,19.80
2018-11-28T03:07:46.761Z,19.57
2018-11-28T03:10:17.488Z,18.07
2018-11-28T03:12:46.253Z,19.73
2018-11-28T03:15:19.899Z,19.67
2018-11-28T03:17:48.606Z,18.80
2018-11-28T03:20:17.323Z,18.87
2018-11-28T03:22:46.037Z,19.20
2018-11-28T03:25:14.785Z,18.60
2018-11-28T03:27:43.511Z,17.90
2018-11-28T03:30:14.527Z,19.60
2018-11-28T03:32:43.307Z,19.53
2018-11-28T03:35:13.414Z,17.90
2018-11-28T03:37:42.127Z,19.00
2018-11-28T03:40:10.999Z,18.40
2018-11-28T03:42:39.799Z,19.23
2018-11-28T03:45:14.320Z,18.23
2018-11-28T03:47:43.723Z,19.03
2018-11-28T03:50:13.490Z,19.50
2018-11-28T03:52:42.258Z,18.17
2018-11-28T03:55:14.133Z,19.13
2018-11-28T03:57:43.484Z,18.30
2018-11-28T04:00:26.955Z,18.57
2018-11-28T04:02:55.713Z,18.23
2018-11-28T04:05:24.375Z,18.13
2018-11-28T04:07:53.109Z,18.97
2018-11-28T04:10:21.889Z,18.60
2018-11-28T04:12:50.714Z,18.63
2018-11-28T04:15:20.496Z,19.50
2018-11-28T04:17:49.300Z,18.57
2018-11-28T04:20:19.029Z,18.57
2018-11-28T04:22:47.789Z,18.93
2018-11-28T04:25:17.650Z,18.90
2018-11-28T04:27:46.376Z,18.20
2018-11-28T04:30:19.042Z,19.03
2018-11-28T04:32:48.580Z,18.37
2018-11-28T04:35:17.343Z,18.77
2018-11-28T04:37:46.354Z,19.47
2018-11-28T04:40:16.073Z,18.67
2018-11-28T04:42:45.029Z,18.57
2018-11-28T04:45:17.664Z,18.90
2018-11-28T04:47:46.367Z,19.40
2018-11-28T04:50:15.227Z,17.27
2018-11-28T04:52:43.961Z,18.67
2018-11-28T04:55:15.312Z,17.97
2018-11-28T04:57:44.197Z,20.50
2018-11-28T05:00:18.883Z,17.90
2018-11-28T05:02:47.779Z,19.20
2018-11-28T05:05:16.484Z,18.33
2018-11-28T05:07:45.938Z,19.57
2018-11-28T05:10:24.279Z,19.10
2018-11-28T05:12:53.540Z,18.13
2018-11-28T05:15:24.051Z,19.57
2018-11-28T05:17:53.612Z,17.40
2018-11-28T05:20:24.336Z,19.40
2018-11-28T05:22:53.027Z,18.33
2018-11-28T05:25:24.673Z,18.53
2018-11-28T05:27:55.386Z,18.20
2018-11-28T05:30:26.156Z,19.63
2018-11-28T05:32:54.877Z,18.20
2018-11-28T05:35:39.393Z,18.60
2018-11-28T05:38:15.511Z,18.37
2018-11-28T05:40:44.954Z,17.70
2018-11-28T05:43:13.618Z,18.37
2018-11-28T05:45:42.326Z,19.07
2018-11-28T05:48:10.980Z,19.23
2018-11-28T05:50:39.723Z,17.83
2018-11-28T05:53:08.431Z,18.77
2018-11-28T05:55:37.414Z,20.03
2018-11-28T05:58:06.721Z,19.90
2018-11-28T06:00:40.223Z,18.83
2018-11-28T06:03:09.812Z,19.10
2018-11-28T06:05:38.712Z,18.87
2018-11-28T06:08:08.023Z,18.07
2018-11-28T06:10:36.844Z,17.83
2018-11-28T06:13:05.586Z,19.90
2018-11-28T06:15:34.300Z,18.73
2018-11-28T06:18:03.021Z,19.23
2018-11-28T06:20:31.694Z,19.40
2018-11-28T06:23:00.400Z,19.63
2018-11-28T06:25:29.139Z,18.93
2018-11-28T06:27:57.895Z,19.57
2018-11-28T06:30:26.593Z,18.83
2018-11-28T06:32:55.236Z,19.27
2018-11-28T06:35:23.959Z,18.93
2018-11-28T06:37:52.715Z,20.13
2018-11-28T06:40:24.227Z,19.83
2018-11-28T06:42:50.187Z,19.63
2018-11-28T06:45:20.310Z,19.57
2018-11-28T06:47:49.002Z,18.63
2018-11-28T06:50:18.699Z,18.97
2018-11-28T06:52:49.635Z,19.77
2018-11-28T06:55:19.561Z,18.63
2018-11-28T06:57:48.325Z,17.60
2018-11-28T07:00:18.403Z,19.07
2018-11-28T07:02:47.533Z,18.00
2018-11-28T07:05:16.196Z,18.07
2018-11-28T07:07:44.916Z,17.97
2018-11-28T07:10:18.639Z,17.60
2018-11-28T07:12:47.302Z,18.60
2018-11-28T07:15:20.239Z,18.27
2018-11-28T07:17:48.967Z,17.47
2018-11-28T07:20:17.896Z,18.60
2018-11-28T07:22:46.667Z,17.73
2018-11-28T07:25:19.021Z,18.20
2018-11-28T07:27:48.675Z,19.20
2018-11-28T07:30:18.536Z,18.30
2018-11-28T07:32:47.619Z,17.50
2018-11-28T07:35:16.324Z,19.73
2018-11-28T07:37:45.015Z,21.93
2018-11-28T07:40:16.069Z,21.83
2018-11-28T07:43:04.371Z,20.53
2018-11-28T07:45:33.061Z,21.03
2018-11-28T07:48:01.748Z,20.13
2018-11-28T07:50:30.524Z,21.30
2018-11-28T07:52:59.208Z,21.50
2018-11-28T07:55:27.884Z,19.70
2018-11-28T07:57:56.596Z,21.57
2018-11-28T08:00:25.302Z,20.30
2018-11-28T08:02:54.010Z,20.00
2018-11-28T08:05:22.745Z,20.13
2018-11-28T08:07:51.417Z,18.87
2018-11-28T08:10:28.237Z,18.63
2018-11-28T08:12:58.035Z,19.97
2018-11-28T08:15:27.006Z,20.37
2018-11-28T08:17:55.506Z,20.60
2018-11-28T08:20:24.265Z,20.33
2018-11-28T08:22:52.924Z,19.80
2018-11-28T08:25:27.512Z,20.80
2018-11-28T08:27:50.893Z,20.50
2018-11-28T08:30:21.742Z,19.23
2018-11-28T08:32:50.496Z,19.47
2018-11-28T08:35:19.220Z,20.17
2018-11-28T08:37:47.957Z,19.37
2018-11-28T08:40:21.381Z,18.60
2018-11-28T08:42:50.136Z,20.87
2018-11-28T08:45:19.738Z,18.90
2018-11-28T08:47:49.701Z,19.00
2018-11-28T08:50:25.650Z,19.37
2018-11-28T08:52:54.506Z,19.80
2018-11-28T08:55:23.421Z,20.03
2018-11-28T08:57:52.474Z,18.97
2018-11-28T09:00:22.356Z,19.27
2018-11-28T09:02:53.188Z,19.70
2018-11-28T09:05:21.904Z,21.00
2018-11-28T09:07:50.567Z,20.63
2018-11-28T09:10:19.771Z,20.20
2018-11-28T09:12:49.153Z,20.27
2018-11-28T09:15:23.281Z,20.37
2018-11-28T09:17:52.069Z,20.87
2018-11-28T09:20:20.797Z,19.47
2018-11-28T09:22:49.553Z,21.03
2018-11-28T09:25:19.078Z,22.03
2018-11-28T09:27:50.068Z,20.30
2018-11-28T09:30:19.699Z,20.30
2018-11-28T09:32:49.249Z,20.27
2018-11-28T09:35:18.345Z,19.57
2018-11-28T09:37:47.066Z,19.23
2018-11-28T09:40:17.052Z,20.87
2018-11-28T09:42:45.817Z,19.53
2018-11-28T09:45:15.603Z,19.63
2018-11-28T09:47:44.246Z,18.97
2018-11-28T09:50:17.891Z,18.87
2018-11-28T09:52:46.580Z,19.77
2018-11-28T09:55:22.042Z,19.67
2018-11-28T09:57:51.089Z,19.07
2018-11-28T10:00:21.818Z,20.07
2018-11-28T10:02:52.000Z,18.77
2018-11-28T10:05:24.256Z,19.17
2018-11-28T10:07:53.112Z,19.73
2018-11-28T10:10:22.246Z,19.83
2018-11-28T10:12:51.355Z,18.83
2018-11-28T10:15:21.150Z,18.57
2018-11-28T10:17:50.663Z,19.70
2018-11-28T10:20:19.990Z,19.00
2018-11-28T10:22:49.828Z,19.40
2018-11-28T10:25:22.514Z,18.90
2018-11-28T10:27:58.555Z,18.60
2018-11-28T10:30:29.653Z,19.67
2018-11-28T10:32:58.514Z,18.20
2018-11-28T10:35:27.190Z,18.13
2018-11-28T10:37:56.050Z,17.83
2018-11-28T10:40:25.655Z,17.40
2018-11-28T10:42:56.683Z,17.90
2018-11-28T10:45:26.358Z,18.37
2018-11-28T10:47:55.320Z,17.50
2018-11-28T10:50:23.999Z,18.50
2018-11-28T10:52:52.714Z,17.67
2018-11-28T11:35:32.379Z,15.50
2018-11-28T11:38:01.097Z,15.60
2018-11-28T11:40:29.814Z,14.40
2018-11-28T11:42:58.575Z,15.47
2018-11-28T11:45:27.292Z,14.67
2018-11-28T11:47:56.008Z,14.60
2018-11-28T11:50:24.680Z,14.73
2018-11-28T11:52:53.392Z,14.33
2018-11-28T11:55:22.063Z,13.63
2018-11-28T11:57:50.883Z,14.00
2018-11-28T12:00:22.711Z,13.53
2018-11-28T12:03:02.448Z,13.10
2018-11-28T12:05:31.327Z,13.77
2018-11-28T12:08:00.167Z,14.00
2018-11-28T12:10:28.939Z,13.07
2018-11-28T12:12:57.608Z,13.13
2018-11-28T12:15:26.350Z,13.77
2018-11-28T12:17:55.074Z,14.57
2018-11-28T12:20:27.696Z,13.13
2018-11-28T12:22:56.445Z,12.73
2018-11-28T12:25:25.403Z,13.00
2018-11-28T12:27:54.135Z,12.87
2018-11-28T12:30:22.848Z,12.87
2018-11-28T12:32:51.560Z,12.10
2018-11-28T12:35:20.387Z,13.00
2018-11-28T12:37:49.141Z,11.60
2018-11-28T12:40:18.163Z,11.80
2018-11-28T12:42:49.710Z,12.40
2018-11-28T12:45:19.412Z,12.33
2018-11-28T12:47:48.704Z,12.27
2018-11-28T12:50:19.642Z,12.30
2018-11-28T12:52:48.417Z,12.07
2018-11-28T12:55:17.464Z,10.87
2018-11-28T12:57:46.193Z,11.83
2018-11-28T13:00:17.057Z,11.13
2018-11-28T13:02:45.781Z,11.77
2018-11-28T13:05:15.788Z,11.93
2018-11-28T13:07:44.522Z,11.30
2018-11-28T13:10:15.185Z,12.17
2018-11-28T13:12:44.417Z,11.03
2018-11-28T13:15:14.987Z,11.60
2018-11-28T13:17:43.702Z,11.70
2018-11-28T13:20:14.524Z,11.50
2018-11-28T13:22:43.352Z,12.03
2018-11-28T13:25:13.911Z,10.80
2018-11-28T13:27:42.845Z,10.80
2018-11-28T13:30:13.444Z,11.00
2018-11-28T13:32:42.679Z,10.47
2018-11-28T13:35:12.288Z,11.07
2018-11-28T13:37:41.264Z,10.40
2018-11-28T13:40:11.540Z,10.10
2018-11-28T13:42:40.312Z,10.27
2018-11-28T13:45:11.124Z,11.17
2018-11-28T13:47:39.978Z,11.23
2018-11-28T13:50:10.337Z,10.53
2018-11-28T13:52:39.041Z,10.73
2018-11-28T13:56:29.826Z,11.43
2018-11-28T13:58:15.418Z,10.20
2018-11-28T14:00:44.129Z,10.00
2018-11-28T14:03:12.852Z,10.57
2018-11-28T14:05:41.608Z,10.03
2018-11-28T14:08:10.332Z,9.73
2018-11-28T14:10:39.043Z,11.03
2018-11-28T14:13:07.751Z,10.07
2018-11-28T14:15:36.442Z,10.00
2018-11-28T14:18:13.072Z,10.83
2018-11-28T14:20:41.792Z,10.33
2018-11-28T14:23:10.504Z,10.80
2018-11-28T14:25:39.211Z,10.60
2018-11-28T14:28:08.341Z,10.00
2018-11-28T14:30:37.801Z,10.13
2018-11-28T14:33:06.560Z,11.23
2018-11-28T14:35:35.252Z,10.57
2018-11-28T14:38:03.965Z,9.80
2018-11-28T14:40:32.735Z,9.33
2018-11-28T14:43:01.496Z,9.97
2018-11-28T14:45:31.251Z,10.50
2018-11-28T14:47:59.974Z,10.03
2018-11-28T14:50:29.435Z,9.73
2018-11-28T14:52:59.507Z,9.70
2018-11-28T14:55:33.491Z,10.33
2018-11-28T14:58:02.233Z,10.97
2018-11-28T15:00:31.721Z,11.47
2018-11-28T15:03:06.831Z,10.73
2018-11-28T15:05:40.033Z,9.47
2018-11-28T15:08:11.110Z,9.83
2018-11-28T15:11:01.634Z,10.10
2018-11-28T15:13:30.421Z,10.13
2018-11-28T15:15:59.106Z,10.70
2018-11-28T15:18:27.821Z,10.27
2018-11-28T15:20:56.554Z,9.93
2018-11-28T15:23:25.269Z,10.23
2018-11-28T15:25:53.969Z,10.47
2018-11-28T15:28:22.715Z,10.87
2018-11-28T15:30:51.460Z,10.67
2018-11-28T15:33:20.210Z,11.37
2018-11-28T15:35:48.906Z,10.70
2018-11-28T15:38:17.612Z,10.60
2018-11-28T15:40:46.309Z,10.57
2018-11-28T15:43:15.020Z,10.77
2018-11-28T15:45:43.695Z,11.27
2018-11-28T15:48:12.520Z,11.17
2018-11-28T15:50:41.213Z,10.80
2018-11-28T15:53:09.944Z,11.57
2018-11-28T15:55:38.727Z,11.27
2018-11-28T15:58:07.452Z,10.63
2018-11-28T16:00:36.230Z,11.20
2018-11-28T16:03:05.016Z,9.77
2018-11-28T16:05:33.764Z,10.23
2018-11-28T16:08:02.471Z,10.00
2018-11-28T16:10:47.076Z,10.70
2018-11-28T16:13:17.253Z,10.20
2018-11-28T16:15:49.423Z,10.10
2018-11-28T16:18:18.151Z,10.57
2018-11-28T16:20:46.854Z,10.10
2018-11-28T16:23:15.600Z,10.67
2018-11-28T16:25:44.394Z,10.17
2018-11-28T16:28:13.078Z,10.20
2018-11-28T16:30:41.819Z,10.40
2018-11-28T16:33:10.589Z,10.63
2018-11-28T16:35:39.309Z,10.57
2018-11-28T16:38:08.337Z,10.83
2018-11-28T16:40:37.055Z,11.10
2018-11-28T16:43:06.248Z,10.67
2018-11-28T16:45:35.177Z,12.20
2018-11-28T16:48:04.019Z,11.17
2018-11-28T16:50:32.716Z,11.40
2018-11-28T16:53:01.478Z,10.90
2018-11-28T16:55:30.144Z,11.43
2018-11-28T16:57:58.830Z,11.53
2018-11-28T17:00:29.027Z,11.77
2018-11-28T17:02:57.885Z,12.47
2018-11-28T17:05:26.603Z,13.50
2018-11-28T17:07:55.317Z,12.90
2018-11-28T17:10:29.664Z,12.87
2018-11-28T17:12:59.602Z,13.13
2018-11-28T17:15:28.381Z,13.50
2018-11-28T17:17:57.240Z,12.03
2018-11-28T17:20:27.647Z,13.50
2018-11-28T17:22:57.633Z,13.67
2018-11-28T17:25:29.756Z,13.63
2018-11-28T17:27:58.572Z,12.43
2018-11-28T17:30:28.321Z,13.47
2018-11-28T17:32:58.033Z,13.30
2018-11-28T17:35:26.764Z,13.80
2018-11-28T17:37:56.259Z,14.50
2018-11-28T17:40:27.342Z,14.57
2018-11-28T17:42:57.632Z,14.93
2018-11-28T17:45:26.883Z,14.47
2018-11-28T17:47:55.593Z,13.67
2018-11-28T17:50:26.608Z,14.10
2018-11-28T17:53:04.018Z,15.17
2018-11-28T17:55:37.685Z,13.70
2018-11-28T17:58:07.361Z,14.27
2018-11-28T18:00:36.044Z,15.63
2018-11-28T18:03:04.849Z,15.37
2018-11-28T18:05:33.534Z,15.27
2018-11-28T18:08:02.287Z,15.60
2018-11-28T18:10:31.093Z,16.50
2018-11-28T18:13:09.202Z,15.73
2018-11-28T18:15:38.180Z,15.97
2018-11-28T18:18:09.622Z,15.00
2018-11-28T18:20:38.390Z,15.77
2018-11-28T18:23:08.795Z,17.13
2018-11-28T18:25:38.141Z,16.00
2018-11-28T18:28:08.240Z,15.57
2018-11-28T18:30:37.312Z,15.80
2018-11-28T18:33:07.988Z,16.13
2018-11-28T18:35:36.862Z,15.57
2018-11-28T18:38:12.619Z,15.10
2018-11-28T18:40:41.355Z,16.60
2018-11-28T18:43:10.798Z,16.63
2018-11-28T18:45:42.087Z,15.93
2018-11-28T18:48:12.167Z,15.83
2018-11-28T18:50:41.009Z,16.70
2018-11-28T18:53:09.890Z,17.13
2018-11-28T18:55:38.733Z,15.77
2018-11-28T18:58:09.024Z,16.73
2018-11-28T19:00:37.813Z,15.00
2018-11-28T19:03:08.008Z,15.53
2018-11-28T19:05:36.875Z,15.37
2018-11-28T19:08:06.559Z,14.47
2018-11-28T19:10:35.359Z,15.83
2018-11-28T19:13:04.279Z,14.00
2018-11-28T19:15:33.167Z,13.90
2018-11-28T19:18:01.957Z,13.43
2018-11-28T19:20:30.716Z,13.10
2018-11-28T19:23:01.740Z,12.87
2018-11-28T19:25:30.476Z,14.07
2018-11-28T19:28:17.656Z,13.03
2018-11-28T19:30:46.758Z,13.13
2018-11-28T19:33:15.937Z,12.10
2018-11-28T19:35:45.159Z,13.03
2018-11-28T19:38:15.518Z,12.57
2018-11-28T19:40:55.318Z,12.43
2018-11-28T19:43:24.877Z,11.17
2018-11-28T19:45:53.581Z,11.83
2018-11-28T19:48:23.172Z,10.57
2018-11-28T19:50:52.469Z,11.90
2018-11-28T19:53:24.259Z,11.40
2018-11-28T19:55:57.241Z,10.87
2018-11-28T19:58:31.542Z,9.77
2018-11-28T20:01:10.584Z,10.17
2018-11-28T20:03:49.032Z,10.30
2018-11-28T20:09:27.136Z,9.67
2018-11-28T20:12:03.342Z,9.37
2018-11-28T20:14:40.364Z,8.97
2018-11-28T20:17:09.133Z,9.00
2018-11-28T20:19:37.820Z,10.03
2018-11-28T20:22:06.735Z,10.07
2018-11-28T20:24:37.857Z,9.73
2018-11-28T20:27:06.953Z,9.77
2018-11-28T20:29:35.664Z,9.43
2018-11-28T20:32:04.409Z,9.67
2018-11-28T20:34:33.759Z,9.67
2018-11-28T20:37:02.605Z,9.33
2018-11-28T20:39:31.383Z,9.70
2018-11-28T20:42:00.146Z,10.13
2018-11-28T20:44:29.039Z,9.60
2018-11-28T20:46:57.783Z,9.30
2018-11-28T20:49:26.456Z,9.87
2018-11-28T20:51:56.428Z,9.63
2018-11-28T20:54:25.099Z,9.40
2018-11-28T20:56:53.960Z,10.20
2018-11-28T20:59:22.671Z,9.10
2018-11-28T21:01:51.465Z,9.03
2018-11-28T21:04:20.193Z,9.17
2018-11-28T21:06:48.908Z,9.10
2018-11-28T21:09:17.674Z,9.30
2018-11-28T21:11:46.340Z,8.83
2018-11-28T21:14:15.243Z,9.00
2018-11-28T21:16:43.913Z,8.67
2018-11-28T21:19:12.631Z,8.53
2018-11-28T21:21:41.322Z,8.77
2018-11-28T21:24:09.991Z,8.53
2018-11-28T21:26:38.762Z,8.20
2018-11-28T21:29:07.510Z,8.00
2018-11-28T21:31:36.178Z,8.53
2018-11-28T21:34:05.382Z,8.83
2018-11-28T21:36:33.674Z,8.60
2018-11-28T21:39:02.447Z,8.23
2018-11-28T21:41:31.212Z,8.97
2018-11-28T21:43:59.893Z,8.63
2018-11-28T21:46:28.526Z,8.50
2018-11-28T21:48:57.253Z,8.90
2018-11-28T21:51:25.941Z,8.50
2018-11-28T21:53:54.713Z,8.60
2018-11-28T21:56:23.458Z,8.87
2018-11-28T21:58:52.367Z,9.33
2018-11-28T22:01:21.222Z,8.83
2018-11-28T22:03:49.980Z,8.30
2018-11-28T22:06:19.101Z,8.90
2018-11-28T22:08:49.389Z,8.77
2018-11-28T22:11:18.227Z,9.03
2018-11-28T22:13:47.335Z,9.43
2018-11-28T22:16:16.141Z,8.87
2018-11-28T22:18:45.018Z,8.90
2018-11-28T22:21:14.214Z,9.40
2018-11-28T22:23:43.225Z,9.60
2018-11-28T22:26:11.867Z,9.63
2018-11-28T22:28:40.681Z,9.37
2018-11-28T22:31:09.657Z,9.20
2018-11-28T22:33:38.726Z,9.47
2018-11-28T22:36:07.750Z,9.00
2018-11-28T22:38:36.490Z,9.60
2018-11-28T22:41:06.373Z,9.13
2018-11-28T22:43:35.572Z,9.27
2018-11-28T22:46:04.392Z,9.07
2018-11-28T22:48:33.223Z,8.93
2018-11-28T22:51:01.907Z,9.37
2018-11-28T22:53:30.854Z,9.10
2018-11-28T22:56:00.092Z,9.10
2018-11-28T22:58:29.218Z,9.53
2018-11-28T23:01:03.615Z,9.50
2018-11-28T23:03:32.571Z,9.27
2018-11-28T23:06:01.413Z,9.77
2018-11-28T23:08:30.250Z,8.90
2018-11-28T23:10:59.334Z,8.93
2018-11-28T23:13:28.128Z,9.00
2018-11-28T23:15:56.828Z,9.23
2018-11-28T23:18:25.607Z,9.07
2018-11-28T23:20:54.268Z,9.17
2018-11-28T23:23:22.983Z,8.90
2018-11-28T23:25:51.720Z,8.83
2018-11-28T23:28:20.402Z,8.57
